Time;durP1;ratioP1;P1;durP2;ratioP2;P2;SDS_P1;SDS_P2;PMS_P1;PMS_P2;Temp;Humidity;BMP_temperature;BMP_pressure;BME280_temperature;BME280_humidity;BME280_pressure;Samples;Min_cycle;Max_cycle;Signal;HPM_P1;HPM_P2
2023/01/15 00:00:13;;;;;;;0.70;0.50;;;;;;;;;;5003093;28;20056;-84
2023/01/15 00:02:45;;;;;;;1.90;0.40;;;;;;;;;;5026346;28;20068;-84
2023/01/15 00:05:15;;;;;;;0.30;0.30;;;;;;;;;;5014275;28;20061;-84
2023/01/15 00:07:43;;;;;;;0.50;0.40;;;;;;;;;;4984599;28;20053;-84
2023/01/15 00:10:11;;;;;;;0.30;0.30;;;;;;;;;;5002439;28;20261;-84
2023/01/15 00:12:41;;;;;;;0.43;0.43;;;;;;;;;;4994140;28;20045;-84
2023/01/15 00:15:12;;;;;;;0.70;0.40;;;;;;;;;;5003241;28;20057;-84
2023/01/15 00:17:41;;;;;;;1.40;0.68;;;;;;;;;;4996265;28;20628;-84
2023/01/15 00:20:10;;;;;;;0.63;0.63;;;;;;;;;;5010344;28;20054;-84
2023/01/15 00:22:37;;;;;;;0.63;0.38;;;;;;;;;;5032365;28;20057;-84
2023/01/15 00:27:52;;;;;;;1.05;0.63;;;;;;;;;;4984709;28;20061;-84
2023/01/15 00:30:23;;;;;;;1.02;0.50;;;;;;;;;;5002550;23;20053;-86
2023/01/15 00:32:50;;;;;;;0.73;0.40;;;;;;;;;;4995865;28;20049;-86
2023/01/15 00:35:23;;;;;;;0.40;0.40;;;;;;;;;;5030360;28;20419;-86
2023/01/15 00:37:50;;;;;;;0.55;0.32;;;;;;;;;;5012067;28;20308;-86
2023/01/15 00:40:19;;;;;;;0.40;0.40;;;;;;;;;;5009229;28;20053;-86
2023/01/15 00:42:46;;;;;;;0.93;0.40;;;;;;;;;;5008254;28;20442;-85
2023/01/15 00:45:14;;;;;;;1.20;0.70;;;;;;;;;;5004649;28;20049;-85
2023/01/15 00:47:44;;;;;;;0.90;0.50;;;;;;;;;;5013004;28;20057;-85
2023/01/15 00:50:14;;;;;;;0.75;0.68;;;;;;;;;;5016967;28;20068;-85
2023/01/15 00:52:46;;;;;;;;;;;;;;;;;;5001748;28;20052;-85
2023/01/15 00:55:16;;;;;;;0.73;0.50;;;;;;;;;;4991956;28;19921;-84
2023/01/15 00:57:43;;;;;;;1.17;0.60;;;;;;;;;;5009408;28;20407;-85
2023/01/15 01:00:13;;;;;;;1.58;1.48;;;;;;;;;;4994735;28;20056;-83
2023/01/15 01:02:41;;;;;;;0.70;0.65;;;;;;;;;;5008587;28;20045;-83
2023/01/15 01:05:09;;;;;;;0.43;0.35;;;;;;;;;;5010571;28;20049;-84
2023/01/15 01:07:37;;;;;;;0.77;0.60;;;;;;;;;;4995951;28;20061;-83
2023/01/15 01:10:05;;;;;;;0.47;0.47;;;;;;;;;;5009062;28;20041;-83
2023/01/15 01:12:36;;;;;;;1.90;0.60;;;;;;;;;;5012989;28;20053;-83
2023/01/15 01:15:04;;;;;;;0.45;0.30;;;;;;;;;;5010287;28;20582;-83
2023/01/15 01:17:32;;;;;;;0.68;0.68;;;;;;;;;;5010603;28;20053;-83
2023/01/15 01:20:02;;;;;;;0.50;0.50;;;;;;;;;;5019912;28;20057;-83
2023/01/15 01:22:32;;;;;;;0.88;0.63;;;;;;;;;;5012745;28;20051;-83
2023/01/15 01:25:01;;;;;;;0.40;0.40;;;;;;;;;;5000434;28;20058;-83
2023/01/15 01:27:29;;;;;;;2.35;0.43;;;;;;;;;;4993185;28;20523;-83
2023/01/15 01:29:59;;;;;;;0.85;0.50;;;;;;;;;;5005465;28;20045;-83
2023/01/15 01:32:28;;;;;;;1.20;1.15;;;;;;;;;;5005491;28;20058;-84
2023/01/15 01:34:57;;;;;;;0.70;0.50;;;;;;;;;;5009134;28;20038;-83
2023/01/15 01:37:24;;;;;;;2.40;0.43;;;;;;;;;;5007520;28;20049;-83
2023/01/15 01:39:53;;;;;;;1.00;0.50;;;;;;;;;;4990546;28;20049;-83
2023/01/15 01:42:24;;;;;;;0.65;0.47;;;;;;;;;;4988281;28;20057;-83
2023/01/15 01:45:16;;;;;;;0.40;0.40;;;;;;;;;;5010038;28;20056;-83
2023/01/15 01:47:44;;;;;;;0.55;0.32;;;;;;;;;;5024623;28;20045;-83
2023/01/15 01:50:13;;;;;;;0.70;0.50;;;;;;;;;;4992424;28;20478;-85
2023/01/15 01:52:45;;;;;;;0.85;0.60;;;;;;;;;;5007966;28;20049;-85
2023/01/15 01:55:15;;;;;;;0.50;0.30;;;;;;;;;;5004891;28;20463;-85
2023/01/15 01:57:42;;;;;;;1.58;0.40;;;;;;;;;;5010761;28;20495;-85
2023/01/15 02:00:15;;;;;;;1.23;0.93;;;;;;;;;;5007209;28;20081;-86
2023/01/15 02:02:45;;;;;;;0.60;0.50;;;;;;;;;;4991111;28;20057;-85
2023/01/15 02:05:15;;;;;;;0.60;0.40;;;;;;;;;;5019474;28;20422;-86
2023/01/15 02:07:42;;;;;;;0.90;0.65;;;;;;;;;;5007748;28;20041;-85
2023/01/15 02:10:15;;;;;;;0.40;0.30;;;;;;;;;;5006947;28;20038;-85
2023/01/15 02:12:46;;;;;;;0.45;0.43;;;;;;;;;;5026985;28;20056;-85
2023/01/15 02:15:16;;;;;;;0.45;0.45;;;;;;;;;;4988895;28;20053;-85
2023/01/15 02:17:50;;;;;;;1.02;0.57;;;;;;;;;;4995694;28;20062;-85
2023/01/15 02:20:30;;;;;;;0.65;0.40;;;;;;;;;;5001933;28;20526;-85
2023/01/15 02:23:21;;;;;;;0.40;0.40;;;;;;;;;;5007762;28;20507;-85
2023/01/15 02:26:03;;;;;;;0.40;0.38;;;;;;;;;;5008170;28;20057;-85
2023/01/15 02:28:33;;;;;;;0.38;0.38;;;;;;;;;;5006049;28;20041;-85
2023/01/15 02:31:05;;;;;;;;;;;;;;;;;;5005384;28;20079;-86
2023/01/15 02:33:36;;;;;;;0.82;0.50;;;;;;;;;;5024445;28;19929;-86
2023/01/15 02:36:07;;;;;;;0.20;0.20;;;;;;;;;;4989202;28;20087;-85
2023/01/15 02:38:38;;;;;;;0.30;0.30;;;;;;;;;;4985281;28;20432;-85
2023/01/15 02:41:14;;;;;;;1.00;0.32;;;;;;;;;;5009858;28;20041;-86
2023/01/15 02:43:46;;;;;;;0.57;0.43;;;;;;;;;;5001565;28;20053;-86
2023/01/15 02:46:18;;;;;;;3.60;0.60;;;;;;;;;;5003149;28;20048;-85
2023/01/15 02:48:50;;;;;;;2.40;0.40;;;;;;;;;;5016655;28;20526;-86
2023/01/15 02:51:21;;;;;;;;;;;;;;;;;;5006939;28;20054;-85
2023/01/15 02:53:55;;;;;;;1.50;0.60;;;;;;;;;;5006171;28;19921;-86
2023/01/15 02:56:25;;;;;;;0.40;0.40;;;;;;;;;;5005333;28;20546;-85
2023/01/15 02:59:06;;;;;;;0.60;0.50;;;;;;;;;;4995300;28;20056;-86
2023/01/15 03:01:36;;;;;;;0.32;0.32;;;;;;;;;;4992490;28;20518;-85
2023/01/15 03:04:09;;;;;;;1.67;1.20;;;;;;;;;;4992764;28;20527;-86
2023/01/15 03:06:42;;;;;;;0.85;0.65;;;;;;;;;;5005447;28;20060;-85
2023/01/15 03:09:10;;;;;;;0.93;0.50;;;;;;;;;;5009081;28;20045;-85
2023/01/15 03:11:42;;;;;;;0.70;0.50;;;;;;;;;;4989208;28;20073;-85
2023/01/15 03:14:16;;;;;;;1.55;0.40;;;;;;;;;;5022385;28;20419;-85
2023/01/15 03:16:45;;;;;;;0.75;0.60;;;;;;;;;;5011202;28;20054;-85
2023/01/15 03:19:22;;;;;;;1.38;0.45;;;;;;;;;;5002084;28;20060;-85
2023/01/15 04:00:07;;;;;;;14.65;0.65;;;;;;;;;;5531893;23;20428;-84
2023/01/15 04:02:46;;;;;;;0.32;0.32;;;;;;;;;;4975595;28;20069;-84
2023/01/15 04:05:19;;;;;;;0.40;0.40;;;;;;;;;;4975033;28;20061;-84
2023/01/15 04:07:50;;;;;;;0.40;0.40;;;;;;;;;;4970931;28;20065;-84
2023/01/15 04:10:20;;;;;;;0.93;0.55;;;;;;;;;;4973061;28;20408;-84
2023/01/15 04:12:51;;;;;;;0.95;0.50;;;;;;;;;;4978046;28;20057;-84
2023/01/15 04:15:21;;;;;;;1.10;0.60;;;;;;;;;;4975067;28;20504;-83
2023/01/15 04:17:49;;;;;;;0.50;0.32;;;;;;;;;;4979623;28;20045;-84
2023/01/15 04:20:17;;;;;;;0.55;0.55;;;;;;;;;;4971789;28;20444;-84
2023/01/15 04:22:45;;;;;;;0.25;0.20;;;;;;;;;;4963190;28;20050;-84
2023/01/15 04:25:13;;;;;;;0.52;0.50;;;;;;;;;;4973846;28;20050;-84
2023/01/15 04:27:54;;;;;;;0.20;0.20;;;;;;;;;;4959656;28;20065;-84
2023/01/15 04:30:22;;;;;;;0.20;0.20;;;;;;;;;;4972442;28;20054;-84
2023/01/15 04:32:50;;;;;;;0.20;0.10;;;;;;;;;;4955460;28;20051;-84
2023/01/15 04:35:18;;;;;;;1.25;0.20;;;;;;;;;;4989893;28;20054;-84
2023/01/15 04:37:45;;;;;;;0.20;0.20;;;;;;;;;;4973907;28;20050;-84
2023/01/15 05:01:35;;;;;;;0.30;0.30;;;;;;;;;;5350450;23;20046;-84
2023/01/15 05:04:02;;;;;;;0.40;0.40;;;;;;;;;;4965288;28;20062;-84
2023/01/15 05:06:30;;;;;;;0.40;0.30;;;;;;;;;;4968903;28;20046;-85
2023/01/15 05:08:58;;;;;;;0.52;0.50;;;;;;;;;;4957948;28;20066;-84
2023/01/15 05:11:26;;;;;;;0.35;0.35;;;;;;;;;;4987247;28;20054;-84
2023/01/15 05:13:53;;;;;;;0.30;0.30;;;;;;;;;;4969152;28;20058;-84
2023/01/15 05:16:23;;;;;;;0.30;0.30;;;;;;;;;;4977736;28;21383;-85
2023/01/15 05:18:52;;;;;;;0.68;0.40;;;;;;;;;;4970554;28;20047;-85
2023/01/15 05:21:23;;;;;;;0.77;0.73;;;;;;;;;;4978118;28;21265;-85
2023/01/15 05:23:51;;;;;;;0.73;0.70;;;;;;;;;;4967143;28;20051;-84
2023/01/15 05:26:19;;;;;;;0.60;0.57;;;;;;;;;;4955308;28;20062;-84
2023/01/15 05:28:47;;;;;;;1.05;0.95;;;;;;;;;;4935217;28;20054;-85
2023/01/15 05:31:18;;;;;;;0.90;0.77;;;;;;;;;;4973239;28;20045;-84
2023/01/15 05:33:46;;;;;;;1.20;0.75;;;;;;;;;;4954652;28;20065;-84
2023/01/15 05:36:17;;;;;;;2.85;1.60;;;;;;;;;;4951361;28;20123;-84
2023/01/15 05:38:44;;;;;;;1.40;1.30;;;;;;;;;;4970815;28;20059;-84
2023/01/15 05:44:00;;;;;;;2.13;1.63;;;;;;;;;;4953733;28;20046;-84
2023/01/15 05:46:28;;;;;;;1.30;1.20;;;;;;;;;;4939933;28;20417;-85
2023/01/15 05:48:59;;;;;;;3.45;1.23;;;;;;;;;;4936742;28;20124;-84
2023/01/15 05:51:30;;;;;;;;;;;;;;;;;;4977731;28;20051;-84
2023/01/15 05:53:57;;;;;;;2.75;1.50;;;;;;;;;;4955492;28;19925;-84
2023/01/15 05:56:24;;;;;;;1.70;0.93;;;;;;;;;;4973057;28;20051;-84
2023/01/15 05:58:54;;;;;;;2.22;1.05;;;;;;;;;;4952133;28;20061;-84
2023/01/15 06:01:24;;;;;;;1.55;1.20;;;;;;;;;;4956799;28;20050;-84
2023/01/15 06:03:54;;;;;;;1.17;0.90;;;;;;;;;;4950824;28;20055;-84
2023/01/15 06:06:21;;;;;;;2.13;1.23;;;;;;;;;;4940393;28;20520;-84
2023/01/15 06:08:50;;;;;;;0.93;0.73;;;;;;;;;;4933224;28;20051;-84
2023/01/15 06:11:17;;;;;;;1.20;1.10;;;;;;;;;;4968820;28;20105;-84
2023/01/15 06:13:44;;;;;;;1.13;0.90;;;;;;;;;;4970289;28;20053;-84
2023/01/15 06:16:12;;;;;;;1.17;0.80;;;;;;;;;;4943911;28;20051;-84
2023/01/15 06:18:40;;;;;;;1.55;1.10;;;;;;;;;;4936895;28;20050;-84
2023/01/15 06:21:08;;;;;;;1.80;1.40;;;;;;;;;;4958869;28;20046;-84
2023/01/15 06:23:36;;;;;;;1.80;1.45;;;;;;;;;;4934248;28;20065;-84
2023/01/15 06:26:08;;;;;;;2.08;1.85;;;;;;;;;;4975153;28;20054;-84
2023/01/15 06:28:38;;;;;;;3.05;1.20;;;;;;;;;;4965964;28;20042;-84
2023/01/15 06:35:40;;;;;;;1.00;0.90;;;;;;;;;;4983438;28;20053;-89
2023/01/15 06:38:46;;;;;;;1.67;1.50;;;;;;;;;;5027047;28;20049;-90
2023/01/15 07:18:59;;;;;;;0.98;0.30;;;;;;;;;;4990341;28;20412;-89
2023/01/15 07:21:27;;;;;;;0.73;0.60;;;;;;;;;;4997995;23;20057;-90
2023/01/15 07:23:55;;;;;;;0.73;0.45;;;;;;;;;;4948252;28;20500;-90
2023/01/15 07:26:22;;;;;;;2.60;0.80;;;;;;;;;;4960118;28;20058;-89
2023/01/15 07:28:50;;;;;;;0.82;0.60;;;;;;;;;;4970164;28;20381;-90
2023/01/15 07:31:17;;;;;;;0.75;0.50;;;;;;;;;;4954525;28;20070;-91
2023/01/15 07:33:45;;;;;;;0.82;0.68;;;;;;;;;;4974441;28;20053;-91
2023/01/15 07:36:16;;;;;;;1.02;0.45;;;;;;;;;;4938070;29;20078;-91
2023/01/15 07:38:46;;;;;;;0.52;0.40;;;;;;;;;;4957520;28;20050;-91
2023/01/15 07:52:16;;;;;;;;;;;;;;;;;;4964469;28;20508;-90
2023/01/15 07:54:46;;;;;;;0.75;0.60;;;;;;;;;;4943488;28;19922;-90
2023/01/15 07:57:21;;;;;;;0.98;0.65;;;;;;;;;;4950601;28;20055;-90
2023/01/15 07:59:49;;;;;;;2.10;0.60;;;;;;;;;;4946960;28;20047;-90
2023/01/15 08:02:17;;;;;;;0.65;0.65;;;;;;;;;;4961288;28;20049;-91
2023/01/15 08:04:47;;;;;;;2.53;0.80;;;;;;;;;;4979244;28;20054;-91
2023/01/15 08:07:18;;;;;;;1.02;0.90;;;;;;;;;;4969239;28;20053;-91
2023/01/15 08:09:46;;;;;;;3.17;1.30;;;;;;;;;;4978776;28;20047;-91
2023/01/15 08:15:13;;;;;;;0.85;0.70;;;;;;;;;;4957497;28;20054;-90
2023/01/15 08:17:43;;;;;;;0.40;0.40;;;;;;;;;;4928373;28;20058;-90
2023/01/15 08:20:13;;;;;;;0.68;0.40;;;;;;;;;;4951896;28;20055;-91
2023/01/15 08:22:45;;;;;;;0.70;0.70;;;;;;;;;;4948935;28;20054;-91
2023/01/15 08:25:13;;;;;;;2.08;0.47;;;;;;;;;;4969886;28;20051;-91
2023/01/15 08:27:48;;;;;;;0.65;0.30;;;;;;;;;;4961371;28;20051;-91
2023/01/15 08:30:18;;;;;;;0.25;0.25;;;;;;;;;;4977584;28;20061;-91
2023/01/15 08:32:47;;;;;;;0.30;0.30;;;;;;;;;;4966021;28;20046;-90
2023/01/15 08:35:15;;;;;;;0.32;0.32;;;;;;;;;;4975532;28;20050;-91
2023/01/15 08:37:43;;;;;;;1.40;0.60;;;;;;;;;;4955227;28;20059;-92
2023/01/15 08:40:13;;;;;;;0.32;0.32;;;;;;;;;;4973154;28;20050;-91
2023/01/15 08:42:41;;;;;;;0.88;0.88;;;;;;;;;;4948153;28;20049;-92
2023/01/15 08:45:09;;;;;;;1.08;0.55;;;;;;;;;;4957455;28;20055;-92
2023/01/15 08:47:37;;;;;;;0.30;0.30;;;;;;;;;;4949159;28;20058;-91
2023/01/15 08:50:05;;;;;;;0.43;0.40;;;;;;;;;;4982994;28;20062;-90
2023/01/15 08:52:32;;;;;;;0.60;0.52;;;;;;;;;;4985487;28;20053;-89
2023/01/15 08:55:00;;;;;;;0.60;0.60;;;;;;;;;;4967040;28;20065;-92
2023/01/15 08:57:31;;;;;;;0.43;0.30;;;;;;;;;;4941259;28;20059;-91
2023/01/15 09:00:00;;;;;;;0.30;0.30;;;;;;;;;;4940296;28;20053;-91
2023/01/15 09:02:28;;;;;;;0.68;0.43;;;;;;;;;;4970442;28;20043;-91
2023/01/15 09:04:58;;;;;;;1.27;0.40;;;;;;;;;;4959640;28;20047;-91
2023/01/15 09:07:25;;;;;;;0.40;0.38;;;;;;;;;;4953879;28;20404;-91
2023/01/15 09:09:53;;;;;;;1.65;1.10;;;;;;;;;;4974833;28;20432;-91
2023/01/15 09:12:23;;;;;;;2.30;1.70;;;;;;;;;;4954892;28;20424;-91
2023/01/15 09:14:52;;;;;;;0.95;0.82;;;;;;;;;;4957627;28;20049;-91
2023/01/15 09:17:20;;;;;;;1.23;0.88;;;;;;;;;;4965119;28;20504;-91
2023/01/15 09:19:48;;;;;;;0.35;0.30;;;;;;;;;;4969075;28;20081;-91
2023/01/15 09:22:15;;;;;;;0.98;0.70;;;;;;;;;;4980732;28;20054;-92
2023/01/15 09:24:43;;;;;;;1.15;0.70;;;;;;;;;;4969140;28;20054;-92
2023/01/15 09:27:15;;;;;;;0.47;0.40;;;;;;;;;;4958665;28;20542;-92
2023/01/15 09:29:43;;;;;;;1.15;1.00;;;;;;;;;;4970357;28;20078;-93
2023/01/15 09:32:12;;;;;;;1.52;0.90;;;;;;;;;;4964987;28;20046;-91
2023/01/15 09:34:40;;;;;;;6.43;5.32;;;;;;;;;;4953699;28;20057;-92
2023/01/15 09:37:09;;;;;;;3.47;1.70;;;;;;;;;;4942265;28;20054;-92
2023/01/15 09:39:39;;;;;;;2.03;1.25;;;;;;;;;;4950839;28;20058;-92
2023/01/15 09:42:19;;;;;;;1.08;0.98;;;;;;;;;;4935425;28;20061;-95
2023/01/15 09:45:24;;;;;;;2.40;1.00;;;;;;;;;;4943697;28;20054;-92
2023/01/15 09:48:16;;;;;;;0.80;0.80;;;;;;;;;;4975287;28;20047;-92
2023/01/15 09:50:55;;;;;;;2.47;0.93;;;;;;;;;;4960820;28;20055;-92
2023/01/15 09:53:41;;;;;;;1.42;1.17;;;;;;;;;;4945806;28;20049;-93
2023/01/15 09:56:14;;;;;;;1.77;1.00;;;;;;;;;;4935815;28;20073;-92
2023/01/15 10:01:29;;;;;;;1.25;1.10;;;;;;;;;;4953080;28;20047;-91
2023/01/15 10:04:03;;;;;;;1.13;1.00;;;;;;;;;;4959343;28;20057;-92
2023/01/15 10:06:39;;;;;;;2.13;1.30;;;;;;;;;;4950426;28;20424;-92
2023/01/15 10:09:14;;;;;;;2.35;1.40;;;;;;;;;;4959488;28;20063;-92
2023/01/15 10:14:40;;;;;;;3.40;2.13;;;;;;;;;;4949204;28;20416;-92
2023/01/15 10:17:25;;;;;;;3.15;1.77;;;;;;;;;;4952734;28;20408;-92
2023/01/15 10:19:58;;;;;;;1.02;0.80;;;;;;;;;;4961457;28;20069;-92
2023/01/15 10:22:45;;;;;;;2.53;1.45;;;;;;;;;;4961344;28;20054;-92
2023/01/15 10:25:17;;;;;;;2.67;1.40;;;;;;;;;;4957438;28;20054;-92
2023/01/15 10:27:47;;;;;;;2.22;1.08;;;;;;;;;;4954584;28;21241;-91
2023/01/15 10:30:17;;;;;;;1.05;0.93;;;;;;;;;;4941626;28;20428;-92
2023/01/15 10:32:47;;;;;;;1.27;0.80;;;;;;;;;;4943103;28;20058;-92
2023/01/15 10:35:49;;;;;;;0.65;0.50;;;;;;;;;;4943591;28;20054;-92
2023/01/15 10:38:23;;;;;;;2.55;1.48;;;;;;;;;;4937451;28;20051;-92
2023/01/15 10:41:10;;;;;;;1.80;1.38;;;;;;;;;;4941042;28;20054;-92
2023/01/15 10:43:44;;;;;;;1.23;1.10;;;;;;;;;;4935816;28;20053;-92
2023/01/15 10:46:20;;;;;;;1.13;0.73;;;;;;;;;;4959010;28;20058;-93
2023/01/15 10:48:55;;;;;;;2.63;1.25;;;;;;;;;;4981233;28;20055;-93
2023/01/15 10:51:29;;;;;;;3.72;1.05;;;;;;;;;;4956649;28;20058;-92
2023/01/15 10:54:00;;;;;;;1.30;0.65;;;;;;;;;;4975064;28;20051;-92
2023/01/15 10:56:35;;;;;;;1.60;0.88;;;;;;;;;;4957027;28;20047;-91
2023/01/15 10:59:13;;;;;;;1.30;0.88;;;;;;;;;;4946489;28;20058;-93
2023/01/15 11:01:41;;;;;;;1.52;0.93;;;;;;;;;;4951788;28;20428;-92
2023/01/15 11:04:11;;;;;;;1.45;0.93;;;;;;;;;;4970016;28;20161;-92
2023/01/15 11:06:41;;;;;;;2.00;0.90;;;;;;;;;;4959014;28;20043;-94
2023/01/15 11:09:20;;;;;;;2.03;1.05;;;;;;;;;;4952679;28;20397;-92
2023/01/15 11:20:29;;;;;;;1.00;0.70;;;;;;;;;;4956643;28;20035;-93
2023/01/15 11:23:07;;;;;;;1.17;0.63;;;;;;;;;;4976547;28;20051;-92
2023/01/15 11:25:38;;;;;;;1.15;0.70;;;;;;;;;;4968434;28;20085;-92
2023/01/15 11:28:08;;;;;;;0.85;0.73;;;;;;;;;;4963690;28;20055;-93
2023/01/15 11:30:39;;;;;;;0.80;0.80;;;;;;;;;;4939457;28;20511;-93
2023/01/15 11:33:24;;;;;;;0.45;0.45;;;;;;;;;;4976598;28;20054;-93
2023/01/15 11:35:57;;;;;;;1.67;1.15;;;;;;;;;;4971165;28;20424;-92
2023/01/15 11:38:29;;;;;;;1.67;0.90;;;;;;;;;;4953555;28;20054;-92
2023/01/15 11:41:00;;;;;;;3.65;1.23;;;;;;;;;;4985098;28;20174;-92
2023/01/15 11:52:07;;;;;;;0.65;0.50;;;;;;;;;;4943069;28;20054;-91
2023/01/15 11:54:40;;;;;;;1.23;0.80;;;;;;;;;;4980608;28;20030;-91
2023/01/15 11:59:53;;;;;;;1.50;0.80;;;;;;;;;;4983157;28;20042;-92
2023/01/15 12:02:32;;;;;;;4.32;1.23;;;;;;;;;;4950497;28;20043;-92
2023/01/15 12:05:06;;;;;;;1.33;0.90;;;;;;;;;;4952452;28;20050;-93
2023/01/15 12:11:02;;;;;;;3.05;1.52;;;;;;;;;;4961925;28;20047;-92
2023/01/15 12:13:30;;;;;;;10.07;4.35;;;;;;;;;;4947186;28;21712;-92
2023/01/15 12:18:54;;;;;;;1.70;1.60;;;;;;;;;;4971798;28;20427;-91
2023/01/15 12:21:41;;;;;;;2.40;1.23;;;;;;;;;;4960444;28;20047;-91
2023/01/15 12:24:40;;;;;;;4.43;1.70;;;;;;;;;;4966942;28;20059;-92
2023/01/15 12:27:19;;;;;;;2.38;0.80;;;;;;;;;;4942500;28;20046;-90
2023/01/15 12:29:55;;;;;;;0.50;0.50;;;;;;;;;;4954334;28;20420;-91
2023/01/15 12:32:24;;;;;;;0.93;0.50;;;;;;;;;;4977723;23;20055;-89
2023/01/15 12:34:54;;;;;;;0.60;0.60;;;;;;;;;;4952226;28;20051;-88
2023/01/15 12:37:25;;;;;;;1.98;0.93;;;;;;;;;;4951664;28;20054;-89
2023/01/15 12:39:57;;;;;;;2.05;1.20;;;;;;;;;;4969544;28;20046;-89
2023/01/15 12:45:16;;;;;;;2.35;1.10;;;;;;;;;;4952855;28;20109;-89
2023/01/15 12:47:48;;;;;;;4.13;2.63;;;;;;;;;;4966610;28;20486;-88
2023/01/15 12:50:27;;;;;;;4.30;2.63;;;;;;;;;;4935287;28;20294;-88
2023/01/15 12:52:59;;;;;;;1.17;0.95;;;;;;;;;;4969152;28;20054;-89
2023/01/15 12:55:29;;;;;;;3.47;2.47;;;;;;;;;;4971592;28;20050;-90
2023/01/15 12:58:01;;;;;;;3.08;1.48;;;;;;;;;;4961562;28;20047;-89
2023/01/15 13:00:31;;;;;;;8.38;4.32;;;;;;;;;;4935113;28;20061;-89
2023/01/15 13:03:07;;;;;;;6.82;4.07;;;;;;;;;;4964870;28;20423;-89
2023/01/15 13:05:38;;;;;;;5.35;2.95;;;;;;;;;;4965928;28;20075;-89
2023/01/15 13:08:12;;;;;;;4.78;1.77;;;;;;;;;;4966845;28;20073;-89
2023/01/15 13:10:41;;;;;;;4.40;1.38;;;;;;;;;;4965081;28;20054;-89
2023/01/15 13:13:16;;;;;;;1.45;0.80;;;;;;;;;;4965881;28;20405;-88
2023/01/15 13:15:58;;;;;;;3.78;1.27;;;;;;;;;;4961342;28;20046;-90
2023/01/15 13:18:34;;;;;;;2.40;1.02;;;;;;;;;;4985068;28;20046;-88
2023/01/15 13:21:05;;;;;;;1.52;1.00;;;;;;;;;;4987333;28;20031;-88
2023/01/15 13:23:45;;;;;;;14.93;1.70;;;;;;;;;;4960617;28;20065;-89
2023/01/15 13:26:20;;;;;;;1.85;1.45;;;;;;;;;;4972840;28;20051;-89
2023/01/15 13:28:57;;;;;;;2.83;1.15;;;;;;;;;;4956603;28;20050;-88
2023/01/15 13:31:42;;;;;;;2.80;0.93;;;;;;;;;;4969703;28;20058;-89
2023/01/15 13:34:13;;;;;;;2.65;1.00;;;;;;;;;;4971262;28;20047;-88
2023/01/15 13:36:44;;;;;;;4.65;1.80;;;;;;;;;;4975858;28;20050;-88
2023/01/15 13:39:15;;;;;;;3.25;0.82;;;;;;;;;;4944361;28;20059;-88
2023/01/15 13:44:32;;;;;;;1.58;1.02;;;;;;;;;;4980322;28;20043;-88
2023/01/15 13:47:01;;;;;;;0.88;0.73;;;;;;;;;;4982693;28;20405;-89
2023/01/15 13:49:33;;;;;;;1.77;1.00;;;;;;;;;;4972482;28;20062;-89
2023/01/15 13:52:03;;;;;;;3.72;1.70;;;;;;;;;;4961993;28;20398;-88
2023/01/15 13:54:32;;;;;;;2.47;1.45;;;;;;;;;;4957651;28;20424;-89
2023/01/15 13:57:07;;;;;;;2.17;1.10;;;;;;;;;;4966433;28;20452;-89
2023/01/15 13:59:40;;;;;;;2.42;1.05;;;;;;;;;;4966833;28;20055;-89
2023/01/15 14:02:23;;;;;;;3.25;1.52;;;;;;;;;;4939728;28;20047;-88
2023/01/15 14:04:51;;;;;;;10.57;2.03;;;;;;;;;;4975480;28;20069;-88
2023/01/15 14:07:19;;;;;;;4.00;1.52;;;;;;;;;;4970149;28;20062;-89
2023/01/15 14:09:46;;;;;;;2.30;1.20;;;;;;;;;;4950924;28;20051;-89
2023/01/15 14:12:23;;;;;;;2.88;1.70;;;;;;;;;;4956171;28;20061;-89
2023/01/15 14:15:14;;;;;;;2.65;2.00;;;;;;;;;;4963067;28;20754;-89
2023/01/15 14:18:03;;;;;;;4.38;1.33;;;;;;;;;;4969735;28;20513;-89
2023/01/15 14:20:38;;;;;;;1.83;1.23;;;;;;;;;;4959023;28;20051;-88
2023/01/15 14:23:18;;;;;;;6.93;2.63;;;;;;;;;;4933007;28;20476;-88
2023/01/15 14:25:53;;;;;;;4.63;3.28;;;;;;;;;;4952355;28;20047;-88
2023/01/15 14:28:31;;;;;;;5.95;1.30;;;;;;;;;;4968877;28;20405;-88
2023/01/15 14:31:20;;;;;;;4.65;1.63;;;;;;;;;;4952263;28;20078;-88
2023/01/15 14:33:57;;;;;;;10.05;1.45;;;;;;;;;;4969624;28;20050;-88
2023/01/15 14:36:27;;;;;;;1.92;0.98;;;;;;;;;;4950827;28;20055;-89
2023/01/15 14:38:57;;;;;;;2.03;1.00;;;;;;;;;;4970607;28;20043;-88
2023/01/15 14:41:26;;;;;;;4.25;1.88;;;;;;;;;;4931843;28;20063;-88
2023/01/15 14:43:53;;;;;;;2.55;1.10;;;;;;;;;;4959331;28;20046;-88
2023/01/15 14:46:26;;;;;;;5.65;0.90;;;;;;;;;;4949834;28;20043;-89
2023/01/15 14:48:54;;;;;;;2.10;0.90;;;;;;;;;;4975272;28;20047;-88
2023/01/15 14:51:29;;;;;;;2.53;1.38;;;;;;;;;;4967377;28;20301;-88
2023/01/15 14:54:01;;;;;;;4.35;1.92;;;;;;;;;;4939675;28;20070;-89
2023/01/15 14:56:31;;;;;;;3.70;1.00;;;;;;;;;;4956369;28;20433;-89
2023/01/15 14:59:03;;;;;;;2.88;1.13;;;;;;;;;;4969828;28;20066;-89
2023/01/15 15:01:43;;;;;;;2.88;0.90;;;;;;;;;;4969294;28;20055;-88
2023/01/15 15:04:18;;;;;;;3.03;1.60;;;;;;;;;;4968344;28;20054;-88
2023/01/15 15:06:48;;;;;;;4.03;1.42;;;;;;;;;;4959408;28;20055;-88
2023/01/15 15:09:28;;;;;;;1.95;1.27;;;;;;;;;;4947416;28;20051;-88
2023/01/15 15:12:20;;;;;;;1.08;0.80;;;;;;;;;;4970954;28;20046;-87
2023/01/15 15:14:53;;;;;;;5.60;1.50;;;;;;;;;;4932117;28;20051;-87
2023/01/15 15:17:31;;;;;;;1.20;0.97;;;;;;;;;;4954566;28;20054;-89
2023/01/15 15:20:08;;;;;;;2.33;1.17;;;;;;;;;;4971246;28;20058;-88
2023/01/15 15:22:36;;;;;;;3.53;1.40;;;;;;;;;;4941677;28;20444;-88
2023/01/15 15:25:10;;;;;;;1.08;0.90;;;;;;;;;;4938310;28;20053;-88
2023/01/15 15:27:37;;;;;;;1.63;1.45;;;;;;;;;;4964289;28;20575;-88
2023/01/15 15:30:07;;;;;;;4.55;1.58;;;;;;;;;;4973510;28;20050;-88
2023/01/15 15:50:05;;;;;;;3.60;1.38;;;;;;;;;;4969935;28;20042;-90
2023/01/15 15:52:34;;;;;;;1.45;0.85;;;;;;;;;;4962131;28;20065;-89
2023/01/15 15:55:06;;;;;;;1.23;0.95;;;;;;;;;;4974080;28;20050;-89
2023/01/15 15:57:36;;;;;;;4.47;1.70;;;;;;;;;;4963235;28;20050;-89
2023/01/15 16:00:21;;;;;;;4.50;1.92;;;;;;;;;;4958034;28;20062;-89
2023/01/15 16:05:35;;;;;;;3.00;1.60;;;;;;;;;;4973959;28;20047;-90
2023/01/15 16:08:19;;;;;;;3.53;1.55;;;;;;;;;;4948754;28;20066;-89
2023/01/15 16:10:49;;;;;;;1.05;0.93;;;;;;;;;;4959713;28;20042;-90
2023/01/15 16:13:24;;;;;;;3.58;1.42;;;;;;;;;;4959789;28;20054;-89
2023/01/15 16:15:55;;;;;;;;;;;;;;;;;;4955828;28;20128;-89
2023/01/15 16:18:28;;;;;;;1.20;0.95;;;;;;;;;;4971708;28;19941;-89
2023/01/15 16:20:59;;;;;;;3.20;1.40;;;;;;;;;;4998648;28;20030;-89
2023/01/15 16:24:01;;;;;;;3.70;1.50;;;;;;;;;;4969130;28;20050;-90
2023/01/15 16:26:32;;;;;;;5.82;1.77;;;;;;;;;;4956476;28;20058;-89
2023/01/15 16:29:03;;;;;;;1.27;1.02;;;;;;;;;;4976663;28;20053;-89
2023/01/15 16:31:47;;;;;;;2.15;1.55;;;;;;;;;;4962274;28;20066;-89
2023/01/15 16:34:24;;;;;;;2.92;2.17;;;;;;;;;;4968459;28;20055;-89
2023/01/15 16:36:52;;;;;;;1.40;1.20;;;;;;;;;;4970738;28;20463;-87
2023/01/15 16:39:24;;;;;;;3.70;0.90;;;;;;;;;;4955546;28;20081;-88
2023/01/15 16:41:56;;;;;;;4.20;1.23;;;;;;;;;;4980993;28;20062;-88
2023/01/15 16:44:32;;;;;;;1.20;0.98;;;;;;;;;;4969059;28;20050;-87
2023/01/15 16:47:01;;;;;;;2.90;1.13;;;;;;;;;;4953976;28;20058;-88
2023/01/15 16:49:33;;;;;;;1.43;1.27;;;;;;;;;;4950403;28;20046;-87
2023/01/15 16:52:02;;;;;;;0.95;0.60;;;;;;;;;;4951581;28;20058;-88
2023/01/15 16:54:46;;;;;;;1.33;0.80;;;;;;;;;;4963420;28;20057;-89
2023/01/15 16:57:28;;;;;;;1.40;1.00;;;;;;;;;;4951326;28;20042;-88
2023/01/15 17:00:00;;;;;;;1.23;1.08;;;;;;;;;;4949404;28;20550;-87
2023/01/15 17:02:35;;;;;;;3.47;1.67;;;;;;;;;;4966252;28;20050;-89
2023/01/15 17:05:14;;;;;;;1.33;0.75;;;;;;;;;;4967997;28;20435;-87
2023/01/15 17:07:42;;;;;;;3.80;1.73;;;;;;;;;;4947866;28;20062;-87
2023/01/15 17:10:20;;;;;;;1.95;0.93;;;;;;;;;;4937645;28;20066;-87
2023/01/15 17:12:51;;;;;;;1.13;0.90;;;;;;;;;;4948633;28;20046;-87
2023/01/15 17:15:41;;;;;;;2.63;0.90;;;;;;;;;;4966007;28;20427;-87
2023/01/15 17:18:35;;;;;;;2.50;1.30;;;;;;;;;;4948889;28;20527;-87
2023/01/15 17:21:14;;;;;;;2.22;1.38;;;;;;;;;;4965473;28;20435;-89
2023/01/15 17:23:45;;;;;;;3.22;1.55;;;;;;;;;;4965151;28;20049;-88
2023/01/15 17:26:16;;;;;;;2.45;1.40;;;;;;;;;;4973344;28;20054;-87
2023/01/15 17:28:50;;;;;;;2.67;1.50;;;;;;;;;;4966826;28;20723;-87
2023/01/15 17:31:24;;;;;;;3.20;1.73;;;;;;;;;;4963897;28;20057;-87
2023/01/15 17:33:53;;;;;;;1.80;1.40;;;;;;;;;;4966878;28;20058;-87
2023/01/15 17:36:24;;;;;;;2.28;1.83;;;;;;;;;;4962939;28;20050;-87
2023/01/15 17:38:54;;;;;;;2.22;1.30;;;;;;;;;;4959543;28;20438;-88
2023/01/15 17:41:22;;;;;;;1.85;1.45;;;;;;;;;;4972113;28;20054;-90
2023/01/15 17:43:52;;;;;;;3.08;1.10;;;;;;;;;;4958851;28;20423;-88
2023/01/15 17:46:21;;;;;;;3.10;1.50;;;;;;;;;;4957290;28;20051;-88
2023/01/15 17:48:50;;;;;;;1.52;1.13;;;;;;;;;;4967668;28;20069;-87
2023/01/15 17:51:19;;;;;;;5.10;1.70;;;;;;;;;;4959583;28;20054;-88
2023/01/15 18:07:46;;;;;;;3.58;1.50;;;;;;;;;;4955185;28;20046;-87
2023/01/15 18:10:19;;;;;;;4.68;1.20;;;;;;;;;;4959076;28;20061;-87
2023/01/15 18:12:47;;;;;;;1.35;1.25;;;;;;;;;;4969367;28;20054;-86
2023/01/15 18:15:18;;;;;;;2.00;1.52;;;;;;;;;;4974328;28;20050;-87
2023/01/15 18:17:48;;;;;;;3.97;1.08;;;;;;;;;;4957732;28;20054;-87
2023/01/15 18:20:18;;;;;;;3.75;1.77;;;;;;;;;;4956736;28;20046;-88
2023/01/15 18:22:47;;;;;;;7.90;1.83;;;;;;;;;;4964246;28;20050;-87
2023/01/15 18:25:15;;;;;;;2.22;1.98;;;;;;;;;;4958772;28;20538;-87
2023/01/15 18:27:46;;;;;;;3.40;1.23;;;;;;;;;;4954415;28;20047;-87